sensor_id;sensor_type;location;lat;lon;timestamp;temperature;humidity
20291;DHT22;10304;51.074;13.754;2023-09-08T00:00:20;20.60;1.00
20291;DHT22;10304;51.074;13.754;2023-09-08T00:02:47;20.60;1.00
20291;DHT22;10304;51.074;13.754;2023-09-08T00:05:14;20.50;1.00
20291;DHT22;10304;51.074;13.754;2023-09-08T00:07:41;20.50;1.00
20291;DHT22;10304;51.074;13.754;2023-09-08T00:10:09;20.40;1.00
20291;DHT22;10304;51.074;13.754;2023-09-08T00:12:37;20.40;1.00
20291;DHT22;10304;51.074;13.754;2023-09-08T00:15:06;20.30;8.60
20291;DHT22;10304;51.074;13.754;2023-09-08T00:17:32;20.30;19.50
20291;DHT22;10304;51.074;13.754;2023-09-08T00:19:59;20.20;99.90
20291;DHT22;10304;51.074;13.754;2023-09-08T00:22:26;20.20;99.90
20291;DHT22;10304;51.074;13.754;2023-09-08T00:24:53;20.20;99.90
20291;DHT22;10304;51.074;13.754;2023-09-08T00:27:20;20.20;99.90
20291;DHT22;10304;51.074;13.754;2023-09-08T00:29:46;20.20;99.90
20291;DHT22;10304;51.074;13.754;2023-09-08T00:32:13;20.20;99.90
20291;DHT22;10304;51.074;13.754;2023-09-08T00:34:40;20.20;99.90
20291;DHT22;10304;51.074;13.754;2023-09-08T00:37:07;20.10;99.90
20291;DHT22;10304;51.074;13.754;2023-09-08T00:39:37;20.10;99.90
20291;DHT22;10304;51.074;13.754;2023-09-08T00:42:04;20.10;99.90
20291;DHT22;10304;51.074;13.754;2023-09-08T00:44:31;20.00;99.90
20291;DHT22;10304;51.074;13.754;2023-09-08T00:46:58;20.00;99.90
20291;DHT22;10304;51.074;13.754;2023-09-08T00:49:25;20.00;99.90
20291;DHT22;10304;51.074;13.754;2023-09-08T00:51:52;20.00;99.90
20291;DHT22;10304;51.074;13.754;2023-09-08T00:54:20;19.90;99.90
20291;DHT22;10304;51.074;13.754;2023-09-08T00:56:46;19.80;99.90
20291;DHT22;10304;51.074;13.754;2023-09-08T00:59:15;19.80;99.90
20291;DHT22;10304;51.074;13.754;2023-09-08T01:01:42;19.80;1.00
20291;DHT22;10304;51.074;13.754;2023-09-08T01:04:09;19.70;99.90
20291;DHT22;10304;51.074;13.754;2023-09-08T01:06:35;19.70;1.00
20291;DHT22;10304;51.074;13.754;2023-09-08T01:09:04;19.60;1.00
20291;DHT22;10304;51.074;13.754;2023-09-08T01:11:32;19.60;1.00
20291;DHT22;10304;51.074;13.754;2023-09-08T01:13:58;19.60;1.00
20291;DHT22;10304;51.074;13.754;2023-09-08T01:16:25;19.60;1.00
20291;DHT22;10304;51.074;13.754;2023-09-08T01:18:52;19.60;1.00
20291;DHT22;10304;51.074;13.754;2023-09-08T01:26:45;19.50;1.00
20291;DHT22;10304;51.074;13.754;2023-09-08T01:29:13;19.50;1.00
20291;DHT22;10304;51.074;13.754;2023-09-08T01:31:41;19.50;1.00
20291;DHT22;10304;51.074;13.754;2023-09-08T01:34:08;19.40;1.00
20291;DHT22;10304;51.074;13.754;2023-09-08T01:36:35;19.40;1.00
20291;DHT22;10304;51.074;13.754;2023-09-08T01:39:02;19.40;1.00
20291;DHT22;10304;51.074;13.754;2023-09-08T01:41:30;19.30;1.00
20291;DHT22;10304;51.074;13.754;2023-09-08T01:43:59;19.30;1.00
20291;DHT22;10304;51.074;13.754;2023-09-08T01:46:25;19.20;1.00
20291;DHT22;10304;51.074;13.754;2023-09-08T01:48:52;19.20;1.00
20291;DHT22;10304;51.074;13.754;2023-09-08T01:51:19;19.10;1.00
20291;DHT22;10304;51.074;13.754;2023-09-08T01:53:46;19.10;1.00
20291;DHT22;10304;51.074;13.754;2023-09-08T01:56:13;19.10;1.00
20291;DHT22;10304;51.074;13.754;2023-09-08T01:58:39;19.00;1.00
20291;DHT22;10304;51.074;13.754;2023-09-08T02:01:06;19.00;1.00
20291;DHT22;10304;51.074;13.754;2023-09-08T02:03:33;19.00;1.00
20291;DHT22;10304;51.074;13.754;2023-09-08T02:06:00;19.00;1.00
20291;DHT22;10304;51.074;13.754;2023-09-08T02:08:26;19.00;1.00
20291;DHT22;10304;51.074;13.754;2023-09-08T02:10:53;19.00;1.00
20291;DHT22;10304;51.074;13.754;2023-09-08T02:13:20;19.00;1.00
20291;DHT22;10304;51.074;13.754;2023-09-08T02:15:47;19.00;1.00
20291;DHT22;10304;51.074;13.754;2023-09-08T02:18:14;19.00;1.00
20291;DHT22;10304;51.074;13.754;2023-09-08T02:20:41;19.00;1.00
20291;DHT22;10304;51.074;13.754;2023-09-08T02:23:08;19.00;1.00
20291;DHT22;10304;51.074;13.754;2023-09-08T02:25:35;19.00;1.00
20291;DHT22;10304;51.074;13.754;2023-09-08T02:28:01;18.90;1.00
20291;DHT22;10304;51.074;13.754;2023-09-08T02:30:28;18.90;29.80
20291;DHT22;10304;51.074;13.754;2023-09-08T02:32:55;18.90;94.90
20291;DHT22;10304;51.074;13.754;2023-09-08T02:35:26;18.90;1.00
20291;DHT22;10304;51.074;13.754;2023-09-08T02:37:53;18.90;1.00
20291;DHT22;10304;51.074;13.754;2023-09-08T02:40:19;18.90;1.00
20291;DHT22;10304;51.074;13.754;2023-09-08T02:42:47;18.90;1.00
20291;DHT22;10304;51.074;13.754;2023-09-08T02:45:14;18.90;99.90
20291;DHT22;10304;51.074;13.754;2023-09-08T02:47:41;18.90;99.90
20291;DHT22;10304;51.074;13.754;2023-09-08T02:50:08;18.90;99.90
20291;DHT22;10304;51.074;13.754;2023-09-08T02:52:35;18.90;71.40
20291;DHT22;10304;51.074;13.754;2023-09-08T02:55:02;18.90;99.90
20291;DHT22;10304;51.074;13.754;2023-09-08T02:57:29;18.90;99.90
20291;DHT22;10304;51.074;13.754;2023-09-08T02:59:55;18.80;53.60
20291;DHT22;10304;51.074;13.754;2023-09-08T03:02:26;18.90;48.80
20291;DHT22;10304;51.074;13.754;2023-09-08T03:04:53;18.80;72.50
20291;DHT22;10304;51.074;13.754;2023-09-08T03:07:20;18.80;22.40
20291;DHT22;10304;51.074;13.754;2023-09-08T03:09:47;18.80;99.90
20291;DHT22;10304;51.074;13.754;2023-09-08T03:12:13;18.80;99.40
20291;DHT22;10304;51.074;13.754;2023-09-08T03:14:40;18.80;99.90
20291;DHT22;10304;51.074;13.754;2023-09-08T03:17:07;18.70;84.00
20291;DHT22;10304;51.074;13.754;2023-09-08T03:19:34;18.70;96.60
20291;DHT22;10304;51.074;13.754;2023-09-08T03:22:01;18.70;7.00
20291;DHT22;10304;51.074;13.754;2023-09-08T03:24:28;18.70;1.00
20291;DHT22;10304;51.074;13.754;2023-09-08T03:26:55;18.60;1.00
20291;DHT22;10304;51.074;13.754;2023-09-08T03:29:22;18.60;1.00
20291;DHT22;10304;51.074;13.754;2023-09-08T03:31:49;18.70;89.50
20291;DHT22;10304;51.074;13.754;2023-09-08T03:34:15;18.70;1.00
20291;DHT22;10304;51.074;13.754;2023-09-08T03:36:43;18.60;14.10
20291;DHT22;10304;51.074;13.754;2023-09-08T03:39:09;18.60;86.40
20291;DHT22;10304;51.074;13.754;2023-09-08T03:41:36;18.60;99.90
20291;DHT22;10304;51.074;13.754;2023-09-08T03:44:03;18.50;99.90
20291;DHT22;10304;51.074;13.754;2023-09-08T03:46:30;18.60;99.90
20291;DHT22;10304;51.074;13.754;2023-09-08T03:48:57;18.50;99.90
20291;DHT22;10304;51.074;13.754;2023-09-08T03:51:28;18.50;99.90
20291;DHT22;10304;51.074;13.754;2023-09-08T03:53:54;18.50;99.90
20291;DHT22;10304;51.074;13.754;2023-09-08T03:56:21;18.50;99.90
20291;DHT22;10304;51.074;13.754;2023-09-08T03:58:49;18.40;99.90
20291;DHT22;10304;51.074;13.754;2023-09-08T04:01:15;18.40;1.00
20291;DHT22;10304;51.074;13.754;2023-09-08T04:03:42;18.40;1.00
20291;DHT22;10304;51.074;13.754;2023-09-08T04:06:10;18.40;99.90
20291;DHT22;10304;51.074;13.754;2023-09-08T04:08:37;18.40;1.00
20291;DHT22;10304;51.074;13.754;2023-09-08T04:11:04;18.30;1.00
20291;DHT22;10304;51.074;13.754;2023-09-08T04:13:31;18.30;99.90
20291;DHT22;10304;51.074;13.754;2023-09-08T04:15:59;18.30;1.00
20291;DHT22;10304;51.074;13.754;2023-09-08T04:18:25;18.30;1.00
20291;DHT22;10304;51.074;13.754;2023-09-08T04:20:52;18.20;1.00
20291;DHT22;10304;51.074;13.754;2023-09-08T04:23:19;18.20;1.00
20291;DHT22;10304;51.074;13.754;2023-09-08T04:25:46;18.20;1.00
20291;DHT22;10304;51.074;13.754;2023-09-08T04:28:13;18.10;1.00
20291;DHT22;10304;51.074;13.754;2023-09-08T04:30:40;18.10;1.00
20291;DHT22;10304;51.074;13.754;2023-09-08T04:33:06;18.10;1.00
20291;DHT22;10304;51.074;13.754;2023-09-08T04:35:33;18.10;1.00
20291;DHT22;10304;51.074;13.754;2023-09-08T04:38:00;18.10;1.00
20291;DHT22;10304;51.074;13.754;2023-09-08T04:40:30;18.10;1.00
20291;DHT22;10304;51.074;13.754;2023-09-08T04:42:57;18.10;1.00
20291;DHT22;10304;51.074;13.754;2023-09-08T04:45:23;18.00;1.00
20291;DHT22;10304;51.074;13.754;2023-09-08T04:47:50;18.10;1.00
20291;DHT22;10304;51.074;13.754;2023-09-08T04:50:17;18.10;1.00
20291;DHT22;10304;51.074;13.754;2023-09-08T04:52:45;18.00;1.00
20291;DHT22;10304;51.074;13.754;2023-09-08T04:55:11;18.00;1.00
20291;DHT22;10304;51.074;13.754;2023-09-08T04:57:38;18.00;1.00
20291;DHT22;10304;51.074;13.754;2023-09-08T05:00:06;18.00;1.00
20291;DHT22;10304;51.074;13.754;2023-09-08T05:02:34;17.90;1.00
20291;DHT22;10304;51.074;13.754;2023-09-08T05:05:01;17.90;1.00
20291;DHT22;10304;51.074;13.754;2023-09-08T05:07:28;17.90;1.00
20291;DHT22;10304;51.074;13.754;2023-09-08T05:09:55;17.90;1.00
20291;DHT22;10304;51.074;13.754;2023-09-08T05:12:24;17.90;1.00
20291;DHT22;10304;51.074;13.754;2023-09-08T05:14:51;18.00;1.00
20291;DHT22;10304;51.074;13.754;2023-09-08T05:17:26;18.00;1.00
20291;DHT22;10304;51.074;13.754;2023-09-08T05:19:52;17.90;1.00
20291;DHT22;10304;51.074;13.754;2023-09-08T05:22:19;18.00;1.00
20291;DHT22;10304;51.074;13.754;2023-09-08T05:24:47;18.00;1.00
20291;DHT22;10304;51.074;13.754;2023-09-08T05:27:15;18.10;1.00
20291;DHT22;10304;51.074;13.754;2023-09-08T05:29:41;18.10;1.00
20291;DHT22;10304;51.074;13.754;2023-09-08T05:32:08;18.10;1.00
20291;DHT22;10304;51.074;13.754;2023-09-08T05:34:35;18.20;1.00
20291;DHT22;10304;51.074;13.754;2023-09-08T05:37:02;18.20;1.00
20291;DHT22;10304;51.074;13.754;2023-09-08T05:39:28;18.30;1.00
20291;DHT22;10304;51.074;13.754;2023-09-08T05:41:55;18.30;1.00
20291;DHT22;10304;51.074;13.754;2023-09-08T05:44:22;18.40;1.00
20291;DHT22;10304;51.074;13.754;2023-09-08T05:46:49;18.40;1.00
20291;DHT22;10304;51.074;13.754;2023-09-08T05:49:16;18.50;1.00
20291;DHT22;10304;51.074;13.754;2023-09-08T05:51:44;18.50;1.00
20291;DHT22;10304;51.074;13.754;2023-09-08T05:54:11;18.60;99.90
20291;DHT22;10304;51.074;13.754;2023-09-08T05:56:39;18.60;99.90
20291;DHT22;10304;51.074;13.754;2023-09-08T05:59:06;18.70;92.50
20291;DHT22;10304;51.074;13.754;2023-09-08T06:01:32;18.70;99.90
20291;DHT22;10304;51.074;13.754;2023-09-08T06:03:59;18.80;91.00
20291;DHT22;10304;51.074;13.754;2023-09-08T06:06:29;18.80;99.90
20291;DHT22;10304;51.074;13.754;2023-09-08T06:08:56;18.90;99.90
20291;DHT22;10304;51.074;13.754;2023-09-08T06:11:23;19.00;99.90
20291;DHT22;10304;51.074;13.754;2023-09-08T06:13:49;19.00;4.80
20291;DHT22;10304;51.074;13.754;2023-09-08T06:16:16;19.00;99.90
20291;DHT22;10304;51.074;13.754;2023-09-08T06:18:43;19.10;35.30
20291;DHT22;10304;51.074;13.754;2023-09-08T06:21:11;19.20;31.10
20291;DHT22;10304;51.074;13.754;2023-09-08T06:23:38;19.30;99.90
20291;DHT22;10304;51.074;13.754;2023-09-08T06:26:05;19.30;15.80
20291;DHT22;10304;51.074;13.754;2023-09-08T06:28:31;19.40;1.00
20291;DHT22;10304;51.074;13.754;2023-09-08T06:30:59;19.50;1.00
20291;DHT22;10304;51.074;13.754;2023-09-08T06:33:26;19.60;1.00
20291;DHT22;10304;51.074;13.754;2023-09-08T06:35:53;19.70;1.00
20291;DHT22;10304;51.074;13.754;2023-09-08T06:38:20;19.80;1.00
20291;DHT22;10304;51.074;13.754;2023-09-08T06:40:47;19.90;1.00
20291;DHT22;10304;51.074;13.754;2023-09-08T06:43:14;20.00;1.00
20291;DHT22;10304;51.074;13.754;2023-09-08T06:45:41;20.10;99.90
20291;DHT22;10304;51.074;13.754;2023-09-08T06:48:08;20.10;99.90
20291;DHT22;10304;51.074;13.754;2023-09-08T06:50:35;20.20;31.60
20291;DHT22;10304;51.074;13.754;2023-09-08T06:53:02;20.30;1.00
20291;DHT22;10304;51.074;13.754;2023-09-08T06:55:29;20.50;1.00
20291;DHT22;10304;51.074;13.754;2023-09-08T06:57:56;20.60;1.00
20291;DHT22;10304;51.074;13.754;2023-09-08T07:00:23;20.70;1.00
20291;DHT22;10304;51.074;13.754;2023-09-08T07:02:51;20.80;1.00
20291;DHT22;10304;51.074;13.754;2023-09-08T07:05:18;21.00;1.00
20291;DHT22;10304;51.074;13.754;2023-09-08T07:07:45;21.10;99.90
20291;DHT22;10304;51.074;13.754;2023-09-08T07:10:14;21.20;99.90
20291;DHT22;10304;51.074;13.754;2023-09-08T07:12:41;21.30;99.90
20291;DHT22;10304;51.074;13.754;2023-09-08T07:15:08;21.40;99.90
20291;DHT22;10304;51.074;13.754;2023-09-08T07:17:35;21.50;99.90
20291;DHT22;10304;51.074;13.754;2023-09-08T07:20:02;21.70;91.20
20291;DHT22;10304;51.074;13.754;2023-09-08T07:22:29;21.80;1.60
20291;DHT22;10304;51.074;13.754;2023-09-08T07:24:56;21.90;1.00
20291;DHT22;10304;51.074;13.754;2023-09-08T07:27:23;22.00;1.00
20291;DHT22;10304;51.074;13.754;2023-09-08T07:29:50;22.20;1.00
20291;DHT22;10304;51.074;13.754;2023-09-08T07:32:17;22.30;1.00
20291;DHT22;10304;51.074;13.754;2023-09-08T07:34:44;22.50;1.00
20291;DHT22;10304;51.074;13.754;2023-09-08T07:37:11;22.50;1.00
20291;DHT22;10304;51.074;13.754;2023-09-08T07:39:38;22.70;1.00
20291;DHT22;10304;51.074;13.754;2023-09-08T07:42:05;22.80;1.00
20291;DHT22;10304;51.074;13.754;2023-09-08T07:44:32;22.90;1.00
20291;DHT22;10304;51.074;13.754;2023-09-08T07:46:59;23.00;1.00
20291;DHT22;10304;51.074;13.754;2023-09-08T07:49:25;23.10;99.90
20291;DHT22;10304;51.074;13.754;2023-09-08T07:51:52;23.20;99.90
20291;DHT22;10304;51.074;13.754;2023-09-08T07:54:19;23.40;99.90
20291;DHT22;10304;51.074;13.754;2023-09-08T07:56:46;23.50;99.90
20291;DHT22;10304;51.074;13.754;2023-09-08T07:59:13;23.60;99.90
20291;DHT22;10304;51.074;13.754;2023-09-08T08:01:40;23.80;99.90
20291;DHT22;10304;51.074;13.754;2023-09-08T08:04:07;23.90;99.90
20291;DHT22;10304;51.074;13.754;2023-09-08T08:06:34;24.10;99.90
20291;DHT22;10304;51.074;13.754;2023-09-08T08:09:01;24.20;99.90
20291;DHT22;10304;51.074;13.754;2023-09-08T08:11:29;24.40;99.90
20291;DHT22;10304;51.074;13.754;2023-09-08T08:13:56;24.50;99.90
20291;DHT22;10304;51.074;13.754;2023-09-08T08:16:23;24.70;99.90
20291;DHT22;10304;51.074;13.754;2023-09-08T08:18:51;24.90;99.90
20291;DHT22;10304;51.074;13.754;2023-09-08T08:21:18;25.00;89.50
20291;DHT22;10304;51.074;13.754;2023-09-08T08:23:45;25.20;73.00
20291;DHT22;10304;51.074;13.754;2023-09-08T08:26:12;25.40;17.30
20291;DHT22;10304;51.074;13.754;2023-09-08T08:28:38;25.50;1.00
20291;DHT22;10304;51.074;13.754;2023-09-08T08:31:05;25.70;1.00
20291;DHT22;10304;51.074;13.754;2023-09-08T08:33:32;25.90;1.00
20291;DHT22;10304;51.074;13.754;2023-09-08T08:35:59;26.10;1.00
20291;DHT22;10304;51.074;13.754;2023-09-08T08:38:27;26.20;1.00
20291;DHT22;10304;51.074;13.754;2023-09-08T08:40:54;26.40;1.00
20291;DHT22;10304;51.074;13.754;2023-09-08T08:43:21;26.60;1.00
20291;DHT22;10304;51.074;13.754;2023-09-08T08:45:50;26.80;1.00
20291;DHT22;10304;51.074;13.754;2023-09-08T08:48:18;26.90;1.00
20291;DHT22;10304;51.074;13.754;2023-09-08T08:50:47;27.20;1.00
20291;DHT22;10304;51.074;13.754;2023-09-08T08:53:15;27.40;1.00
20291;DHT22;10304;51.074;13.754;2023-09-08T08:55:44;27.60;1.00
20291;DHT22;10304;51.074;13.754;2023-09-08T08:58:12;27.80;1.00
20291;DHT22;10304;51.074;13.754;2023-09-08T09:00:41;28.00;1.00
20291;DHT22;10304;51.074;13.754;2023-09-08T09:03:09;28.10;1.00
20291;DHT22;10304;51.074;13.754;2023-09-08T09:05:41;28.30;1.00
20291;DHT22;10304;51.074;13.754;2023-09-08T09:08:15;28.40;1.00
20291;DHT22;10304;51.074;13.754;2023-09-08T09:10:43;28.60;1.00
20291;DHT22;10304;51.074;13.754;2023-09-08T09:13:11;28.60;1.00
20291;DHT22;10304;51.074;13.754;2023-09-08T09:15:38;28.80;1.00
20291;DHT22;10304;51.074;13.754;2023-09-08T09:18:06;29.00;1.00
20291;DHT22;10304;51.074;13.754;2023-09-08T09:20:33;29.10;1.00
20291;DHT22;10304;51.074;13.754;2023-09-08T09:23:01;29.30;1.00
20291;DHT22;10304;51.074;13.754;2023-09-08T09:25:30;29.50;1.00
20291;DHT22;10304;51.074;13.754;2023-09-08T09:28:00;29.70;1.00
20291;DHT22;10304;51.074;13.754;2023-09-08T09:30:28;29.90;1.00
20291;DHT22;10304;51.074;13.754;2023-09-08T09:33:04;30.10;1.00
20291;DHT22;10304;51.074;13.754;2023-09-08T09:35:52;30.40;1.00
20291;DHT22;10304;51.074;13.754;2023-09-08T09:38:21;30.60;1.00
20291;DHT22;10304;51.074;13.754;2023-09-08T09:40:48;30.90;1.00
20291;DHT22;10304;51.074;13.754;2023-09-08T09:43:16;31.10;1.00
20291;DHT22;10304;51.074;13.754;2023-09-08T09:45:44;31.40;1.00
20291;DHT22;10304;51.074;13.754;2023-09-08T09:48:11;31.50;1.00
20291;DHT22;10304;51.074;13.754;2023-09-08T09:50:41;31.80;1.00
20291;DHT22;10304;51.074;13.754;2023-09-08T09:53:12;32.00;1.00
20291;DHT22;10304;51.074;13.754;2023-09-08T09:55:41;32.30;1.00
20291;DHT22;10304;51.074;13.754;2023-09-08T09:58:09;32.50;1.00
20291;DHT22;10304;51.074;13.754;2023-09-08T10:00:41;32.70;1.00
20291;DHT22;10304;51.074;13.754;2023-09-08T10:03:13;32.90;1.00
20291;DHT22;10304;51.074;13.754;2023-09-08T10:05:41;33.10;1.00
20291;DHT22;10304;51.074;13.754;2023-09-08T10:08:07;33.40;1.00
20291;DHT22;10304;51.074;13.754;2023-09-08T10:10:35;33.50;1.00
20291;DHT22;10304;51.074;13.754;2023-09-08T10:13:06;33.60;1.00
20291;DHT22;10304;51.074;13.754;2023-09-08T10:15:33;33.70;1.00
20291;DHT22;10304;51.074;13.754;2023-09-08T10:18:04;33.80;1.00
20291;DHT22;10304;51.074;13.754;2023-09-08T10:20:33;33.90;1.00
20291;DHT22;10304;51.074;13.754;2023-09-08T10:23:13;34.10;1.00
20291;DHT22;10304;51.074;13.754;2023-09-08T10:25:43;34.30;1.00
20291;DHT22;10304;51.074;13.754;2023-09-08T10:28:16;34.30;1.00
20291;DHT22;10304;51.074;13.754;2023-09-08T10:30:43;34.40;1.00
20291;DHT22;10304;51.074;13.754;2023-09-08T10:33:10;34.50;1.00
20291;DHT22;10304;51.074;13.754;2023-09-08T10:35:39;34.70;1.00
20291;DHT22;10304;51.074;13.754;2023-09-08T10:38:38;34.70;1.00
20291;DHT22;10304;51.074;13.754;2023-09-08T10:43:55;35.10;1.00
20291;DHT22;10304;51.074;13.754;2023-09-08T10:46:28;35.20;1.00
20291;DHT22;10304;51.074;13.754;2023-09-08T10:49:00;35.40;1.00
20291;DHT22;10304;51.074;13.754;2023-09-08T10:51:29;35.60;1.00
20291;DHT22;10304;51.074;13.754;2023-09-08T10:53:55;35.60;1.00
20291;DHT22;10304;51.074;13.754;2023-09-08T10:56:28;35.80;1.00
20291;DHT22;10304;51.074;13.754;2023-09-08T10:58:55;36.10;1.00
20291;DHT22;10304;51.074;13.754;2023-09-08T11:01:22;36.30;1.00
20291;DHT22;10304;51.074;13.754;2023-09-08T11:03:53;36.30;1.00
20291;DHT22;10304;51.074;13.754;2023-09-08T11:06:21;36.50;1.00
20291;DHT22;10304;51.074;13.754;2023-09-08T11:08:50;36.60;1.00
20291;DHT22;10304;51.074;13.754;2023-09-08T11:11:22;36.70;1.00
20291;DHT22;10304;51.074;13.754;2023-09-08T11:13:49;36.80;1.00
20291;DHT22;10304;51.074;13.754;2023-09-08T11:16:16;36.80;1.00
20291;DHT22;10304;51.074;13.754;2023-09-08T11:18:50;37.00;1.00
20291;DHT22;10304;51.074;13.754;2023-09-08T11:21:18;37.00;1.00
20291;DHT22;10304;51.074;13.754;2023-09-08T11:23:45;37.00;1.00
20291;DHT22;10304;51.074;13.754;2023-09-08T11:26:12;37.00;1.00
20291;DHT22;10304;51.074;13.754;2023-09-08T11:28:41;37.00;1.00
20291;DHT22;10304;51.074;13.754;2023-09-08T11:31:08;37.00;1.00
20291;DHT22;10304;51.074;13.754;2023-09-08T11:33:35;37.00;1.00
20291;DHT22;10304;51.074;13.754;2023-09-08T11:36:12;37.00;1.00
20291;DHT22;10304;51.074;13.754;2023-09-08T11:38:44;37.10;1.00
20291;DHT22;10304;51.074;13.754;2023-09-08T11:41:12;37.30;1.00
20291;DHT22;10304;51.074;13.754;2023-09-08T11:43:39;37.50;1.00
20291;DHT22;10304;51.074;13.754;2023-09-08T11:46:06;37.70;1.00
20291;DHT22;10304;51.074;13.754;2023-09-08T11:48:33;37.80;1.00
20291;DHT22;10304;51.074;13.754;2023-09-08T11:51:00;38.00;1.00
20291;DHT22;10304;51.074;13.754;2023-09-08T11:53:27;38.10;1.00
20291;DHT22;10304;51.074;13.754;2023-09-08T11:55:54;38.30;1.00
20291;DHT22;10304;51.074;13.754;2023-09-08T11:58:22;38.40;1.00
20291;DHT22;10304;51.074;13.754;2023-09-08T12:00:49;38.50;1.00
20291;DHT22;10304;51.074;13.754;2023-09-08T12:03:16;38.50;1.00
20291;DHT22;10304;51.074;13.754;2023-09-08T12:05:44;38.70;1.00
20291;DHT22;10304;51.074;13.754;2023-09-08T12:08:17;38.80;1.00
20291;DHT22;10304;51.074;13.754;2023-09-08T12:10:43;38.90;1.00
20291;DHT22;10304;51.074;13.754;2023-09-08T12:13:10;38.90;1.00
20291;DHT22;10304;51.074;13.754;2023-09-08T12:15:42;38.90;1.00
20291;DHT22;10304;51.074;13.754;2023-09-08T12:18:11;39.00;1.00
20291;DHT22;10304;51.074;13.754;2023-09-08T12:20:40;39.10;1.00
20291;DHT22;10304;51.074;13.754;2023-09-08T12:23:27;39.20;1.00
20291;DHT22;10304;51.074;13.754;2023-09-08T12:25:53;39.30;1.00
20291;DHT22;10304;51.074;13.754;2023-09-08T12:28:23;39.30;1.00
20291;DHT22;10304;51.074;13.754;2023-09-08T12:30:56;39.30;1.00
20291;DHT22;10304;51.074;13.754;2023-09-08T12:33:26;39.40;1.00
20291;DHT22;10304;51.074;13.754;2023-09-08T12:35:53;39.60;1.00
20291;DHT22;10304;51.074;13.754;2023-09-08T12:38:20;39.80;1.00
20291;DHT22;10304;51.074;13.754;2023-09-08T12:40:47;39.90;1.00
20291;DHT22;10304;51.074;13.754;2023-09-08T12:43:14;40.00;1.00
20291;DHT22;10304;51.074;13.754;2023-09-08T12:45:54;40.00;1.00
20291;DHT22;10304;51.074;13.754;2023-09-08T12:48:21;40.10;1.00
20291;DHT22;10304;51.074;13.754;2023-09-08T12:50:49;40.20;1.00
20291;DHT22;10304;51.074;13.754;2023-09-08T12:53:16;40.30;1.00
20291;DHT22;10304;51.074;13.754;2023-09-08T12:55:44;40.40;1.00
20291;DHT22;10304;51.074;13.754;2023-09-08T12:58:11;40.50;1.00
20291;DHT22;10304;51.074;13.754;2023-09-08T13:00:38;40.60;1.00
20291;DHT22;10304;51.074;13.754;2023-09-08T13:03:05;40.60;99.90
20291;DHT22;10304;51.074;13.754;2023-09-08T13:05:32;40.70;99.90
20291;DHT22;10304;51.074;13.754;2023-09-08T13:08:02;40.60;99.90
20291;DHT22;10304;51.074;13.754;2023-09-08T13:10:29;40.60;99.90
20291;DHT22;10304;51.074;13.754;2023-09-08T13:12:56;40.60;99.90
20291;DHT22;10304;51.074;13.754;2023-09-08T13:15:23;40.80;99.90
20291;DHT22;10304;51.074;13.754;2023-09-08T13:17:50;40.90;99.90
20291;DHT22;10304;51.074;13.754;2023-09-08T13:20:18;41.00;99.90
20291;DHT22;10304;51.074;13.754;2023-09-08T13:22:45;41.00;99.90
20291;DHT22;10304;51.074;13.754;2023-09-08T13:25:12;40.90;99.90
20291;DHT22;10304;51.074;13.754;2023-09-08T13:27:42;41.00;99.90
20291;DHT22;10304;51.074;13.754;2023-09-08T13:30:09;41.00;99.90
20291;DHT22;10304;51.074;13.754;2023-09-08T13:32:37;41.10;99.90
20291;DHT22;10304;51.074;13.754;2023-09-08T13:35:05;41.20;99.90
20291;DHT22;10304;51.074;13.754;2023-09-08T13:37:32;41.30;99.90
20291;DHT22;10304;51.074;13.754;2023-09-08T13:40:02;41.40;99.90
20291;DHT22;10304;51.074;13.754;2023-09-08T13:42:31;41.50;99.90
20291;DHT22;10304;51.074;13.754;2023-09-08T13:44:58;41.60;99.90
20291;DHT22;10304;51.074;13.754;2023-09-08T13:47:25;41.80;99.90
20291;DHT22;10304;51.074;13.754;2023-09-08T13:49:53;41.90;99.90
20291;DHT22;10304;51.074;13.754;2023-09-08T13:52:23;42.00;99.90
20291;DHT22;10304;51.074;13.754;2023-09-08T13:54:57;42.20;99.90
20291;DHT22;10304;51.074;13.754;2023-09-08T13:57:27;42.40;99.90
20291;DHT22;10304;51.074;13.754;2023-09-08T13:59:55;42.60;99.90
20291;DHT22;10304;51.074;13.754;2023-09-08T14:02:23;42.70;99.90
20291;DHT22;10304;51.074;13.754;2023-09-08T14:04:53;42.80;99.90
20291;DHT22;10304;51.074;13.754;2023-09-08T14:07:21;42.80;99.90
20291;DHT22;10304;51.074;13.754;2023-09-08T14:09:53;42.90;99.90
20291;DHT22;10304;51.074;13.754;2023-09-08T14:12:31;42.90;99.90
20291;DHT22;10304;51.074;13.754;2023-09-08T14:15:02;43.00;99.90
20291;DHT22;10304;51.074;13.754;2023-09-08T14:17:29;43.10;99.90
20291;DHT22;10304;51.074;13.754;2023-09-08T14:19:56;43.10;99.90
20291;DHT22;10304;51.074;13.754;2023-09-08T14:22:23;43.20;99.90
20291;DHT22;10304;51.074;13.754;2023-09-08T14:24:49;43.30;99.90
20291;DHT22;10304;51.074;13.754;2023-09-08T14:27:16;43.50;99.90
20291;DHT22;10304;51.074;13.754;2023-09-08T14:29:43;43.50;99.90
20291;DHT22;10304;51.074;13.754;2023-09-08T14:32:10;43.30;99.90
20291;DHT22;10304;51.074;13.754;2023-09-08T14:34:37;43.30;99.90
20291;DHT22;10304;51.074;13.754;2023-09-08T14:37:04;43.20;99.90
20291;DHT22;10304;51.074;13.754;2023-09-08T14:39:33;43.20;99.90
20291;DHT22;10304;51.074;13.754;2023-09-08T14:42:00;43.20;99.90
20291;DHT22;10304;51.074;13.754;2023-09-08T14:44:27;43.20;99.90
20291;DHT22;10304;51.074;13.754;2023-09-08T14:47:02;43.20;99.90
20291;DHT22;10304;51.074;13.754;2023-09-08T14:49:29;43.20;99.90
20291;DHT22;10304;51.074;13.754;2023-09-08T14:51:56;43.20;99.90
20291;DHT22;10304;51.074;13.754;2023-09-08T14:54:23;43.20;99.90
20291;DHT22;10304;51.074;13.754;2023-09-08T14:56:50;43.00;99.90
20291;DHT22;10304;51.074;13.754;2023-09-08T14:59:16;42.90;99.90
20291;DHT22;10304;51.074;13.754;2023-09-08T15:01:43;42.70;99.90
20291;DHT22;10304;51.074;13.754;2023-09-08T15:04:12;42.50;99.90
20291;DHT22;10304;51.074;13.754;2023-09-08T15:06:39;42.30;99.90
20291;DHT22;10304;51.074;13.754;2023-09-08T15:09:06;42.30;99.90
20291;DHT22;10304;51.074;13.754;2023-09-08T15:11:32;42.30;99.90
20291;DHT22;10304;51.074;13.754;2023-09-08T15:13:59;42.20;99.90
20291;DHT22;10304;51.074;13.754;2023-09-08T15:16:26;42.10;99.90
20291;DHT22;10304;51.074;13.754;2023-09-08T15:18:53;42.00;99.90
20291;DHT22;10304;51.074;13.754;2023-09-08T15:21:24;41.80;99.90
20291;DHT22;10304;51.074;13.754;2023-09-08T15:23:54;41.70;99.90
20291;DHT22;10304;51.074;13.754;2023-09-08T15:26:21;41.50;99.90
20291;DHT22;10304;51.074;13.754;2023-09-08T15:28:48;41.40;99.90
20291;DHT22;10304;51.074;13.754;2023-09-08T15:31:16;41.30;99.90
20291;DHT22;10304;51.074;13.754;2023-09-08T15:33:43;41.20;99.90
20291;DHT22;10304;51.074;13.754;2023-09-08T15:36:10;41.10;99.90